Airey, Mississippi
Current Conditions -  °F | °C
As of 9:53 PM on Tuesday 25 Nov 2014 (Local Time) from KGPT Reporting Station
Clear Clear  
Wind Chill: 44°   Ceiling: Unl
Heat Index: 49°   Visibility: 10mi
Dew Point: 31°   Wind: 13mph
Humidity: 50%   Direction: 330°NNW
Pressure: 30.17"   Gusts: NA
Location:  30.603°N, 89.0932°W
Report Text: KGPT 260353Z 33011KT 10SM CLR 09/M01 A3017 RMK AO2 SLP216 T00941006 $
Loading
Personal Weather Stations






























Interactive Weather Map New forecast layout! Learn more

10-Day Weather Forecast

Advertisements
Track Severe Weather on mobile